createdAt,value
2022-08-02T00:00:35.307Z,15.70
2022-08-02T00:03:04.895Z,15.70
2022-08-02T00:05:32.913Z,15.70
2022-08-02T00:08:00.996Z,15.60
2022-08-02T00:10:30.496Z,15.60
2022-08-02T00:12:58.732Z,15.50
2022-08-02T00:15:26.833Z,15.50
2022-08-02T00:17:54.930Z,15.40
2022-08-02T00:20:24.483Z,15.40
2022-08-02T00:22:52.575Z,15.50
2022-08-02T00:25:20.772Z,15.50
2022-08-02T00:27:48.821Z,15.50
2022-08-02T00:30:16.892Z,15.50
2022-08-02T00:32:45.008Z,15.50
2022-08-02T00:35:13.088Z,15.50
2022-08-02T00:37:43.165Z,15.70
2022-08-02T00:40:12.580Z,15.90
2022-08-02T00:42:41.330Z,16.10
2022-08-02T00:45:10.528Z,16.20
2022-08-02T00:47:38.642Z,16.20
2022-08-02T00:50:07.492Z,16.30
2022-08-02T00:52:35.555Z,16.40
2022-08-02T00:55:05.631Z,16.40
2022-08-02T00:57:33.685Z,16.20
2022-08-02T01:00:01.795Z,16.20
2022-08-02T01:02:29.820Z,16.10
2022-08-02T01:04:57.857Z,16.00
2022-08-02T01:07:26.227Z,16.00
2022-08-02T01:09:54.631Z,16.00
2022-08-02T01:12:24.094Z,16.20
2022-08-02T01:14:53.778Z,16.30
2022-08-02T01:17:27.652Z,16.20
2022-08-02T01:20:06.489Z,16.20
2022-08-02T01:23:01.621Z,16.20
2022-08-02T01:26:04.081Z,16.10
2022-08-02T01:28:38.997Z,16.10
2022-08-02T01:31:15.272Z,16.00
2022-08-02T01:33:46.801Z,15.90
2022-08-02T01:36:18.375Z,15.90
2022-08-02T01:38:49.629Z,15.90
2022-08-02T01:41:22.512Z,16.00
2022-08-02T01:43:55.024Z,16.00
2022-08-02T01:46:24.206Z,16.00
2022-08-02T01:48:55.837Z,15.90
2022-08-02T01:51:39.971Z,16.00
2022-08-02T01:54:10.837Z,15.90
2022-08-02T01:56:40.084Z,15.70
2022-08-02T01:59:12.578Z,15.70
2022-08-02T02:01:41.595Z,15.70
2022-08-02T02:04:11.044Z,15.80
2022-08-02T02:06:40.070Z,15.80
2022-08-02T02:09:09.165Z,15.80
2022-08-02T02:12:06.133Z,15.80
2022-08-02T02:14:29.262Z,15.80
2022-08-02T02:17:00.210Z,15.70
2022-08-02T02:19:30.226Z,15.70
2022-08-02T02:21:58.826Z,15.70
2022-08-02T02:24:27.348Z,15.60
2022-08-02T02:26:56.110Z,15.50
2022-08-02T02:29:29.345Z,15.40
2022-08-02T02:31:59.756Z,15.40
2022-08-02T02:34:30.209Z,15.20
2022-08-02T02:37:01.450Z,15.30
2022-08-02T02:39:30.052Z,15.40
2022-08-02T02:42:03.214Z,15.30
2022-08-02T02:44:33.459Z,15.30
2022-08-02T02:47:03.059Z,15.20
2022-08-02T02:49:35.862Z,15.20
2022-08-02T02:52:05.194Z,15.20
2022-08-02T02:54:35.431Z,15.20
2022-08-02T02:57:06.170Z,15.20
2022-08-02T02:59:42.604Z,15.20
2022-08-02T03:07:48.165Z,14.90
2022-08-02T03:10:16.272Z,14.90
2022-08-02T03:12:44.401Z,14.80
2022-08-02T03:15:15.162Z,14.70
2022-08-02T03:17:44.700Z,14.60
2022-08-02T03:20:15.235Z,14.60
2022-08-02T03:22:43.737Z,14.40
2022-08-02T03:25:12.809Z,14.50
2022-08-02T03:27:41.347Z,14.50
2022-08-02T03:30:12.124Z,14.40
2022-08-02T03:32:43.894Z,14.40
2022-08-02T03:35:17.514Z,14.30
2022-08-02T03:37:48.830Z,14.30
2022-08-02T03:40:18.272Z,14.30
2022-08-02T03:42:46.657Z,14.40
2022-08-02T03:45:15.195Z,14.50
2022-08-02T03:47:45.652Z,14.60
2022-08-02T03:50:14.278Z,14.70
2022-08-02T03:52:43.487Z,14.80
2022-08-02T03:55:12.526Z,14.90
2022-08-02T03:57:41.147Z,15.00
2022-08-02T04:00:10.971Z,15.00
2022-08-02T04:02:39.003Z,15.10
2022-08-02T04:05:09.389Z,15.20
2022-08-02T04:08:34.976Z,15.30
2022-08-02T04:10:25.554Z,15.40
2022-08-02T04:12:54.361Z,15.50
2022-08-02T04:15:24.383Z,15.60
2022-08-02T04:17:57.755Z,15.70
2022-08-02T04:20:30.784Z,15.80
2022-08-02T04:23:02.703Z,15.90
2022-08-02T04:25:34.445Z,16.00
2022-08-02T04:28:16.567Z,16.00
2022-08-02T04:30:45.589Z,16.10
2022-08-02T04:33:14.257Z,16.20
2022-08-02T04:35:44.197Z,16.20
2022-08-02T04:38:14.449Z,16.20
2022-08-02T04:40:42.629Z,16.30
2022-08-02T04:43:10.650Z,16.30
2022-08-02T04:45:38.850Z,16.40
2022-08-02T04:48:07.714Z,16.40
2022-08-02T04:50:36.010Z,16.60
2022-08-02T04:53:05.540Z,16.70
2022-08-02T04:55:33.896Z,16.80
2022-08-02T04:58:04.249Z,16.80
2022-08-02T05:00:42.580Z,16.90
2022-08-02T05:03:10.659Z,16.80
2022-08-02T05:05:39.795Z,16.80
2022-08-02T05:08:09.225Z,16.80
2022-08-02T05:10:37.650Z,16.80
2022-08-02T05:13:06.763Z,16.90
2022-08-02T05:15:34.903Z,17.00
2022-08-02T05:18:03.035Z,17.00
2022-08-02T05:20:31.119Z,17.10
2022-08-02T05:22:59.142Z,17.20
2022-08-02T05:25:28.799Z,17.20
2022-08-02T05:27:56.798Z,17.30
2022-08-02T05:30:25.032Z,17.40
2022-08-02T05:32:53.639Z,17.50
2022-08-02T05:35:23.158Z,17.40
2022-08-02T05:37:52.237Z,17.60
2022-08-02T05:40:25.579Z,17.70
2022-08-02T05:42:55.736Z,17.70
2022-08-02T05:45:23.890Z,17.90
2022-08-02T05:47:52.110Z,18.00
2022-08-02T05:50:20.781Z,18.30
2022-08-02T05:52:52.946Z,18.40
2022-08-02T05:55:27.720Z,18.50
2022-08-02T05:58:04.010Z,18.60
2022-08-02T06:00:33.252Z,18.90
2022-08-02T06:03:22.930Z,19.00
2022-08-02T06:05:58.970Z,19.10
2022-08-02T06:08:34.057Z,19.10
2022-08-02T06:11:03.837Z,19.20
2022-08-02T06:13:34.253Z,19.50
2022-08-02T06:16:03.109Z,19.90
2022-08-02T06:18:34.521Z,21.40
2022-08-02T06:22:35.268Z,23.10
2022-08-02T06:23:57.385Z,24.20
2022-08-02T06:26:27.574Z,25.30
2022-08-02T06:28:58.567Z,25.70
2022-08-02T06:31:27.127Z,25.10
2022-08-02T06:33:55.248Z,25.00
2022-08-02T06:36:31.803Z,24.50
2022-08-02T06:47:17.096Z,27.20
2022-08-02T06:49:52.860Z,28.00
2022-08-02T06:52:28.318Z,28.10
2022-08-02T06:54:57.983Z,27.80
2022-08-02T06:57:26.118Z,28.20
2022-08-02T06:59:54.244Z,28.50
2022-08-02T07:02:23.954Z,28.30
2022-08-02T07:04:52.130Z,28.80
2022-08-02T07:07:20.290Z,29.50
2022-08-02T07:09:56.346Z,30.00
2022-08-02T07:12:31.466Z,30.40
2022-08-02T07:14:59.821Z,31.00
2022-08-02T07:17:29.858Z,31.10
2022-08-02T07:19:58.288Z,31.20
2022-08-02T07:22:28.215Z,31.90
2022-08-02T07:24:58.519Z,32.40
2022-08-02T07:27:27.222Z,32.30
2022-08-02T07:29:55.566Z,32.20
2022-08-02T07:32:26.623Z,32.60
2022-08-02T07:34:56.893Z,32.60
2022-08-02T07:37:53.630Z,32.90
2022-08-02T07:40:20.330Z,33.10
2022-08-02T07:42:52.186Z,33.00
2022-08-02T07:45:21.088Z,33.10
2022-08-02T07:47:49.677Z,32.50
2022-08-02T07:50:21.046Z,32.10
2022-08-02T07:52:49.703Z,31.70
2022-08-02T07:55:25.513Z,31.40
2022-08-02T07:58:11.504Z,31.70
2022-08-02T08:00:42.808Z,32.10
2022-08-02T08:03:10.892Z,32.40
2022-08-02T08:05:40.795Z,32.50
2022-08-02T08:08:12.416Z,32.40
2022-08-02T08:10:44.918Z,33.20
2022-08-02T08:13:12.988Z,34.10
2022-08-02T08:15:41.022Z,34.30
2022-08-02T08:18:09.058Z,34.70
2022-08-02T08:20:40.939Z,34.80
2022-08-02T08:23:08.939Z,33.90
2022-08-02T08:25:39.617Z,33.50
2022-08-02T08:28:09.260Z,33.60
2022-08-02T08:30:37.402Z,34.20
2022-08-02T08:33:05.450Z,34.50
2022-08-02T08:35:33.592Z,35.00
2022-08-02T08:38:07.262Z,35.20
2022-08-02T08:40:37.048Z,35.40
2022-08-02T08:43:05.285Z,35.80
2022-08-02T08:45:33.426Z,35.40
2022-08-02T08:48:02.963Z,35.20
2022-08-02T08:50:34.458Z,35.00
2022-08-02T08:53:06.797Z,34.30
2022-08-02T08:55:36.242Z,34.10
2022-08-02T08:58:05.647Z,33.90
2022-08-02T09:00:35.343Z,34.00
2022-08-02T09:03:04.718Z,34.80
2022-08-02T09:05:35.231Z,35.20
2022-08-02T09:08:05.586Z,35.20
2022-08-02T09:10:36.186Z,35.00
2022-08-02T09:13:31.338Z,35.50
2022-08-02T09:16:13.089Z,34.90
2022-08-02T09:18:45.395Z,33.90
2022-08-02T09:21:15.250Z,33.30
2022-08-02T09:23:46.986Z,33.30
2022-08-02T09:26:17.167Z,33.80
2022-08-02T09:28:47.840Z,34.10
2022-08-02T09:43:00.731Z,35.50
2022-08-02T09:45:32.931Z,35.50
2022-08-02T09:48:01.416Z,35.50
2022-08-02T09:50:29.613Z,35.20
2022-08-02T09:52:58.404Z,35.40
2022-08-02T09:55:27.575Z,35.70
2022-08-02T09:57:55.826Z,35.50
2022-08-02T10:00:43.559Z,35.60
2022-08-02T10:03:21.617Z,35.40
2022-08-02T10:05:56.013Z,35.50
2022-08-02T10:08:33.251Z,34.80
2022-08-02T10:11:02.571Z,34.60
2022-08-02T10:13:31.912Z,34.80
2022-08-02T10:16:02.568Z,34.80
2022-08-02T10:18:40.388Z,34.90
2022-08-02T10:21:14.814Z,34.60
2022-08-02T10:23:45.466Z,34.40
2022-08-02T10:26:18.648Z,34.20
2022-08-02T10:28:49.504Z,34.40
2022-08-02T10:31:23.460Z,34.50
2022-08-02T10:33:54.000Z,33.90
2022-08-02T10:36:27.097Z,34.10
2022-08-02T10:38:58.625Z,34.30
2022-08-02T10:41:46.539Z,34.60
2022-08-02T10:44:26.956Z,34.70
2022-08-02T10:47:25.031Z,33.90
2022-08-02T10:49:55.045Z,33.00
2022-08-02T10:52:24.708Z,32.90
2022-08-02T10:54:58.060Z,33.00
2022-08-02T10:57:27.819Z,33.00
2022-08-02T11:00:02.104Z,32.80
2022-08-02T11:02:46.755Z,32.40
2022-08-02T11:05:16.687Z,31.70
2022-08-02T11:07:47.895Z,31.50
2022-08-02T11:10:36.020Z,31.60
2022-08-02T11:13:08.314Z,31.90
2022-08-02T11:15:58.967Z,32.00
2022-08-02T11:19:00.747Z,31.80
2022-08-02T11:21:31.387Z,31.40
2022-08-02T11:24:30.021Z,31.20
2022-08-02T11:26:59.280Z,31.20
2022-08-02T11:29:39.186Z,31.20
2022-08-02T11:32:08.742Z,31.00
2022-08-02T11:34:38.337Z,30.70
2022-08-02T11:37:08.263Z,30.70
2022-08-02T11:39:36.333Z,30.70
2022-08-02T11:42:04.519Z,30.60
2022-08-02T11:44:42.054Z,30.70
2022-08-02T11:47:10.212Z,30.70
2022-08-02T11:49:38.805Z,30.60
2022-08-02T11:52:11.125Z,30.60
2022-08-02T11:54:42.197Z,30.50
2022-08-02T11:57:19.277Z,30.50
2022-08-02T11:59:49.354Z,30.50
2022-08-02T12:02:19.021Z,30.60
2022-08-02T12:04:57.330Z,30.90
2022-08-02T12:07:34.724Z,31.10
2022-08-02T12:10:06.883Z,31.30
2022-08-02T12:12:35.230Z,31.40
2022-08-02T12:15:03.259Z,31.40
2022-08-02T12:17:54.342Z,31.30
2022-08-02T12:20:35.649Z,31.20
2022-08-02T12:23:05.279Z,31.10
2022-08-02T12:25:35.236Z,30.90
2022-08-02T12:28:18.298Z,30.90
2022-08-02T12:30:55.436Z,30.80
2022-08-02T12:33:25.205Z,30.60
2022-08-02T12:35:53.513Z,30.50
2022-08-02T12:38:23.298Z,30.50
2022-08-02T12:40:51.472Z,30.50
2022-08-02T12:43:21.302Z,30.60
2022-08-02T12:45:53.076Z,30.60
2022-08-02T12:48:40.364Z,30.50
2022-08-02T12:51:23.382Z,30.50
2022-08-02T12:53:59.083Z,30.50
2022-08-02T12:56:32.106Z,30.50
2022-08-02T12:59:00.571Z,30.50
2022-08-02T13:01:30.069Z,30.40
2022-08-02T13:04:09.607Z,30.20
2022-08-02T13:06:44.787Z,30.10
2022-08-02T13:09:17.332Z,30.20
2022-08-02T13:11:45.904Z,30.20
2022-08-02T13:14:14.471Z,30.30
2022-08-02T13:16:43.636Z,30.50
2022-08-02T13:19:13.036Z,30.40
2022-08-02T13:22:11.364Z,30.30
2022-08-02T13:24:40.617Z,30.40
2022-08-02T13:27:20.857Z,30.30
2022-08-02T13:29:49.805Z,30.50
2022-08-02T13:32:17.977Z,30.60
2022-08-02T13:34:46.170Z,30.30
2022-08-02T13:37:14.316Z,30.30
2022-08-02T13:39:51.495Z,30.40
2022-08-02T13:42:32.202Z,30.50
2022-08-02T13:45:00.243Z,30.70
2022-08-02T13:48:04.826Z,30.50
2022-08-02T13:50:30.240Z,30.40
2022-08-02T13:52:58.299Z,30.20
2022-08-02T13:55:28.159Z,30.00
2022-08-02T13:57:56.562Z,29.90
2022-08-02T14:00:35.267Z,29.80
2022-08-02T14:03:07.802Z,29.80
2022-08-02T14:05:48.609Z,29.90
2022-08-02T14:08:18.317Z,29.90
2022-08-02T14:10:48.343Z,30.00
2022-08-02T14:13:17.246Z,29.90
2022-08-02T14:15:45.758Z,29.80
2022-08-02T14:18:15.313Z,29.80
2022-08-02T14:20:44.043Z,29.80
2022-08-02T14:23:12.165Z,29.90
2022-08-02T14:25:40.204Z,29.90
2022-08-02T14:28:09.763Z,29.90
2022-08-02T14:30:37.884Z,29.90
2022-08-02T14:33:06.029Z,29.80
2022-08-02T14:35:34.398Z,29.70
2022-08-02T14:38:02.536Z,29.80
2022-08-02T14:40:31.007Z,29.80
2022-08-02T14:43:00.514Z,29.80
2022-08-02T14:45:40.178Z,29.80
2022-08-02T14:48:10.393Z,29.70
2022-08-02T14:50:38.473Z,29.60
2022-08-02T14:53:06.509Z,29.60
2022-08-02T14:55:41.759Z,29.70
2022-08-02T14:58:09.961Z,29.80
2022-08-02T15:00:41.226Z,29.90
2022-08-02T15:03:10.507Z,29.90
2022-08-02T15:05:38.574Z,29.90
2022-08-02T15:08:07.426Z,30.10
2022-08-02T15:10:35.498Z,30.10
2022-08-02T15:13:03.554Z,30.10
2022-08-02T15:15:31.653Z,30.10
2022-08-02T15:18:01.077Z,30.00
2022-08-02T15:20:30.017Z,30.00
2022-08-02T15:23:03.458Z,30.00
2022-08-02T15:25:31.651Z,29.90
2022-08-02T15:27:59.724Z,29.90
2022-08-02T15:30:27.894Z,29.80
2022-08-02T15:32:56.033Z,29.60
2022-08-02T15:35:25.433Z,29.60
2022-08-02T15:37:54.275Z,29.50
2022-08-02T15:40:22.459Z,29.50
2022-08-02T15:42:50.557Z,29.50
2022-08-02T15:45:19.306Z,29.70
2022-08-02T15:47:50.405Z,29.80
2022-08-02T15:50:18.971Z,29.90
2022-08-02T15:52:48.808Z,29.80
2022-08-02T15:55:16.939Z,29.90
2022-08-02T15:57:45.039Z,29.70
2022-08-02T16:00:18.589Z,29.80
2022-08-02T16:02:48.011Z,29.70
2022-08-02T16:05:18.228Z,29.70
2022-08-02T16:07:48.671Z,29.60
2022-08-02T16:10:17.435Z,29.60
2022-08-02T16:12:45.819Z,29.50
2022-08-02T16:15:13.893Z,29.60
2022-08-02T16:17:51.758Z,29.50
2022-08-02T16:20:23.064Z,29.50
2022-08-02T16:22:52.480Z,29.60
2022-08-02T16:25:20.645Z,29.50
2022-08-02T16:28:06.186Z,29.40
2022-08-02T16:30:35.712Z,29.40
2022-08-02T16:33:04.110Z,29.40
2022-08-02T16:35:32.383Z,29.40
2022-08-02T16:38:01.890Z,29.30
2022-08-02T16:40:30.733Z,29.30
2022-08-02T16:42:58.931Z,29.20
2022-08-02T16:45:28.922Z,29.10
2022-08-02T16:50:48.792Z,29.10
2022-08-02T16:53:36.516Z,29.10
2022-08-02T16:56:05.912Z,29.00
2022-08-02T16:58:34.008Z,29.00
2022-08-02T17:01:02.135Z,29.00
2022-08-02T17:03:55.683Z,29.00
2022-08-02T17:06:18.413Z,29.00
2022-08-02T17:11:45.356Z,28.90
2022-08-02T17:14:14.904Z,28.90
2022-08-02T17:16:43.907Z,29.00
2022-08-02T17:19:12.437Z,29.00
2022-08-02T17:21:40.490Z,28.80
2022-08-02T17:24:09.998Z,28.80
2022-08-02T17:26:39.898Z,28.80
2022-08-02T17:29:16.256Z,28.70
2022-08-02T17:32:05.087Z,28.70
2022-08-02T17:34:35.736Z,28.70
2022-08-02T17:37:05.748Z,28.60
2022-08-02T17:39:44.337Z,28.60
2022-08-02T17:42:23.595Z,28.50
2022-08-02T17:44:53.103Z,28.50
2022-08-02T17:47:21.850Z,28.50
2022-08-02T17:49:52.710Z,28.30
2022-08-02T17:52:52.441Z,28.30
2022-08-02T17:55:14.292Z,28.20
2022-08-02T17:57:56.894Z,28.20
2022-08-02T18:00:33.804Z,28.10
2022-08-02T18:03:06.003Z,28.10
2022-08-02T18:05:40.239Z,28.10
2022-08-02T18:08:23.174Z,28.00
2022-08-02T18:10:53.616Z,28.00
2022-08-02T18:13:22.273Z,28.00
2022-08-02T18:15:52.396Z,28.00
2022-08-02T18:18:29.300Z,27.90
2022-08-02T18:20:58.428Z,27.80
2022-08-02T18:23:44.347Z,27.70
2022-08-02T18:26:20.802Z,27.70
2022-08-02T18:28:49.386Z,27.60
2022-08-02T18:31:22.810Z,27.60
2022-08-02T18:33:59.556Z,27.60
2022-08-02T18:36:30.504Z,27.60
2022-08-02T18:38:59.816Z,27.50
2022-08-02T18:41:38.107Z,27.40
2022-08-02T18:44:06.666Z,27.40
2022-08-02T18:46:35.025Z,27.30
2022-08-02T18:49:13.414Z,27.30
2022-08-02T18:51:43.488Z,27.20
2022-08-02T18:54:11.700Z,27.20
2022-08-02T18:56:47.524Z,27.00
2022-08-02T18:59:15.839Z,27.00
2022-08-02T19:01:51.160Z,26.90
2022-08-02T19:04:27.098Z,26.90
2022-08-02T19:06:56.464Z,26.80
2022-08-02T19:09:24.644Z,26.70
2022-08-02T19:11:55.417Z,26.70
2022-08-02T19:14:28.127Z,26.60
2022-08-02T19:16:57.869Z,26.60
2022-08-02T19:19:28.856Z,26.70
2022-08-02T19:22:15.863Z,26.60
2022-08-02T19:24:45.895Z,26.60
2022-08-02T19:27:20.727Z,26.60
2022-08-02T19:29:54.518Z,26.60
2022-08-02T19:32:39.692Z,26.50
2022-08-02T19:35:19.065Z,26.40
2022-08-02T19:37:59.537Z,26.30
2022-08-02T19:40:29.061Z,26.30
2022-08-02T19:44:23.830Z,26.20
2022-08-02T19:45:50.626Z,26.10
2022-08-02T19:48:23.662Z,26.10
2022-08-02T19:50:56.662Z,26.00
2022-08-02T19:53:47.406Z,25.80
2022-08-02T19:56:20.112Z,25.70
2022-08-02T19:58:51.473Z,25.70
2022-08-02T20:01:25.418Z,25.60
2022-08-02T20:04:05.022Z,25.50
2022-08-02T20:06:33.031Z,25.50
2022-08-02T20:09:01.743Z,25.40
2022-08-02T20:11:34.734Z,25.30
2022-08-02T20:14:05.406Z,25.30
2022-08-02T20:16:34.234Z,25.20
2022-08-02T20:19:02.646Z,25.20
2022-08-02T20:21:35.803Z,25.10
2022-08-02T20:24:06.758Z,25.00
2022-08-02T20:26:35.476Z,24.90
2022-08-02T20:29:05.339Z,24.90
2022-08-02T20:31:34.384Z,24.80
2022-08-02T20:34:03.020Z,24.80
2022-08-02T20:36:31.192Z,24.60
2022-08-02T20:38:59.239Z,24.50
2022-08-02T20:41:37.272Z,24.40
2022-08-02T20:44:30.154Z,24.40
2022-08-02T20:46:59.489Z,24.30
2022-08-02T20:49:40.884Z,24.20
2022-08-02T20:54:58.356Z,24.10
2022-08-02T21:05:54.902Z,23.90
2022-08-02T21:08:25.536Z,23.80
2022-08-02T21:10:55.565Z,23.70
2022-08-02T21:13:26.067Z,23.70
2022-08-02T21:15:55.757Z,23.60
2022-08-02T21:18:43.258Z,23.50
2022-08-02T21:21:11.377Z,23.40
2022-08-02T21:26:34.172Z,23.40
2022-08-02T21:29:03.544Z,23.40
2022-08-02T21:31:33.454Z,23.30
2022-08-02T21:34:21.649Z,23.30
2022-08-02T21:36:50.676Z,23.20
2022-08-02T21:39:20.684Z,23.20
2022-08-02T21:41:49.140Z,23.10
2022-08-02T21:44:18.140Z,23.10
2022-08-02T21:46:49.413Z,23.10
2022-08-02T21:49:18.052Z,23.00
2022-08-02T21:51:49.510Z,23.00
2022-08-02T21:54:21.281Z,23.00
2022-08-02T21:56:52.316Z,23.00
2022-08-02T21:59:25.222Z,22.90
2022-08-02T22:01:56.456Z,22.90
2022-08-02T22:04:25.930Z,22.90
2022-08-02T22:06:54.945Z,22.90
2022-08-02T22:09:43.695Z,22.90
2022-08-02T22:12:16.625Z,22.80
2022-08-02T22:14:49.447Z,22.80
2022-08-02T22:17:49.955Z,22.80
2022-08-02T22:20:12.611Z,22.80
2022-08-02T22:22:41.857Z,22.80
2022-08-02T22:25:26.569Z,22.80
2022-08-02T22:28:13.278Z,22.70
2022-08-02T22:30:52.562Z,22.60
2022-08-02T22:33:42.188Z,22.60
2022-08-02T22:36:14.693Z,22.50
2022-08-02T22:38:44.370Z,22.50
2022-08-02T22:41:14.823Z,22.50
2022-08-02T22:43:44.084Z,22.40
2022-08-02T22:46:15.610Z,22.40
2022-08-02T22:48:45.313Z,22.40
2022-08-02T22:58:34.852Z,29.10
2022-08-02T22:58:49.679Z,29.00
2022-08-02T22:58:56.454Z,24.10
2022-08-02T22:59:02.554Z,23.40
2022-08-02T23:03:31.987Z,22.20
2022-08-02T23:06:01.437Z,22.10
2022-08-02T23:08:29.546Z,22.00
2022-08-02T23:10:57.578Z,22.00
2022-08-02T23:13:28.340Z,21.90
2022-08-02T23:16:14.344Z,21.90
2022-08-02T23:19:00.897Z,21.90
2022-08-02T23:22:01.785Z,21.80
2022-08-02T23:24:22.627Z,21.80
2022-08-02T23:26:50.728Z,21.70
2022-08-02T23:29:18.875Z,21.70
2022-08-02T23:31:46.936Z,21.70
2022-08-02T23:34:14.993Z,21.70
2022-08-02T23:36:44.403Z,21.60
2022-08-02T23:39:12.548Z,21.60
2022-08-02T23:41:40.609Z,21.50
2022-08-02T23:44:14.197Z,21.50
2022-08-02T23:46:43.937Z,21.40
2022-08-02T23:49:12.898Z,21.40
2022-08-02T23:51:41.080Z,21.40
2022-08-02T23:54:10.849Z,21.30
2022-08-02T23:56:39.465Z,21.30
2022-08-02T23:59:07.882Z,21.10
